createdAt,value
2019-02-04T00:00:38.430Z,73.53
2019-02-04T00:01:20.425Z,73.55
2019-02-04T00:01:56.850Z,73.58
2019-02-04T00:02:33.065Z,73.57
2019-02-04T00:03:09.828Z,73.56
2019-02-04T00:03:46.000Z,73.58
2019-02-04T00:04:22.431Z,73.50
2019-02-04T00:04:58.551Z,73.47
2019-02-04T00:05:34.921Z,73.40
2019-02-04T00:06:11.238Z,73.38
2019-02-04T00:06:47.335Z,73.28
2019-02-04T00:07:23.510Z,72.89
2019-02-04T00:07:59.662Z,72.42
2019-02-04T00:08:35.891Z,72.27
2019-02-04T00:09:12.175Z,72.22
2019-02-04T00:09:48.237Z,72.20
2019-02-04T00:10:24.497Z,72.21
2019-02-04T00:11:00.778Z,72.19
2019-02-04T00:11:37.044Z,72.21
2019-02-04T00:12:13.267Z,72.24
2019-02-04T00:12:49.363Z,72.31
2019-02-04T00:13:25.889Z,72.35
2019-02-04T00:14:02.062Z,72.39
2019-02-04T00:14:38.268Z,72.44
2019-02-04T00:15:14.474Z,72.44
2019-02-04T00:15:50.765Z,72.44
2019-02-04T00:16:26.913Z,72.47
2019-02-04T00:17:03.228Z,72.44
2019-02-04T00:17:39.312Z,72.43
2019-02-04T00:18:15.468Z,72.46
2019-02-04T00:18:51.800Z,72.44
2019-02-04T00:19:28.050Z,72.46
2019-02-04T00:20:04.578Z,72.39
2019-02-04T00:20:41.031Z,72.26
2019-02-04T00:21:17.137Z,72.11
2019-02-04T00:21:53.243Z,71.72
2019-02-04T00:22:29.321Z,71.49
2019-02-04T00:23:05.456Z,71.25
2019-02-04T00:23:41.902Z,71.08
2019-02-04T00:24:18.034Z,70.96
2019-02-04T00:24:54.518Z,70.88
2019-02-04T00:25:30.829Z,70.80
2019-02-04T00:26:07.185Z,70.66
2019-02-04T00:26:51.430Z,70.33
2019-02-04T00:27:21.458Z,70.29
2019-02-04T00:27:57.610Z,69.48
2019-02-04T00:28:33.721Z,69.48
2019-02-04T00:29:09.787Z,69.46
2019-02-04T00:29:45.910Z,69.30
2019-02-04T00:30:22.255Z,69.22
2019-02-04T00:30:58.492Z,69.39
2019-02-04T00:31:34.632Z,69.39
2019-02-04T00:32:10.753Z,68.77
2019-02-04T00:32:46.845Z,68.61
2019-02-04T00:33:23.051Z,68.50
2019-02-04T00:33:59.109Z,68.25
2019-02-04T00:34:35.381Z,68.25
2019-02-04T00:35:12.154Z,67.70
2019-02-04T00:35:48.432Z,67.70
2019-02-04T00:36:24.518Z,67.75
2019-02-04T00:37:00.826Z,67.58
2019-02-04T00:37:37.086Z,67.57
2019-02-04T00:38:14.067Z,67.46
2019-02-04T00:38:50.112Z,67.34
2019-02-04T00:39:26.418Z,67.25
2019-02-04T00:40:02.714Z,67.33
2019-02-04T00:40:38.802Z,67.33
2019-02-04T00:41:15.022Z,66.81
2019-02-04T00:41:51.237Z,66.47
2019-02-04T00:42:27.198Z,65.97
2019-02-04T00:43:03.531Z,65.97
2019-02-04T00:43:39.623Z,66.23
2019-02-04T00:44:15.803Z,66.23
2019-02-04T00:44:51.999Z,65.73
2019-02-04T00:45:28.547Z,65.63
2019-02-04T00:46:05.078Z,65.64
2019-02-04T00:46:51.773Z,65.82
2019-02-04T00:47:19.513Z,65.20
2019-02-04T00:47:55.862Z,64.79
2019-02-04T00:48:32.085Z,64.91
2019-02-04T00:49:08.271Z,65.29
2019-02-04T00:49:44.327Z,65.11
2019-02-04T00:50:20.606Z,64.36
2019-02-04T00:50:56.837Z,64.54
2019-02-04T00:51:33.178Z,64.55
2019-02-04T00:52:09.360Z,64.55
2019-02-04T00:52:45.683Z,65.18
2019-02-04T00:53:21.923Z,65.07
2019-02-04T00:53:58.030Z,65.07
2019-02-04T00:54:34.191Z,64.51
2019-02-04T00:55:10.747Z,64.51
2019-02-04T00:55:47.194Z,63.70
2019-02-04T00:56:23.502Z,63.70
2019-02-04T00:57:00.012Z,63.66
2019-02-04T00:57:36.294Z,63.57
2019-02-04T00:58:12.593Z,62.65
2019-02-04T00:58:48.765Z,63.37
2019-02-04T00:59:25.006Z,62.31
2019-02-04T01:00:01.269Z,62.31
2019-02-04T01:00:37.368Z,62.87
2019-02-04T01:01:13.513Z,62.72
2019-02-04T01:01:49.645Z,62.64
2019-02-04T01:02:25.775Z,62.64
2019-02-04T01:03:02.066Z,62.56
2019-02-04T01:03:38.435Z,62.56
2019-02-04T01:04:14.794Z,62.99
2019-02-04T01:04:51.045Z,63.43
2019-02-04T01:05:27.238Z,63.54
2019-02-04T01:06:03.415Z,63.54
2019-02-04T01:06:39.828Z,63.88
2019-02-04T01:07:16.209Z,63.97
2019-02-04T01:07:52.421Z,64.00
2019-02-04T01:08:28.924Z,63.96
2019-02-04T01:09:06.346Z,63.67
2019-02-04T01:09:42.440Z,63.52
2019-02-04T01:10:20.602Z,63.39
2019-02-04T01:10:56.828Z,63.20
2019-02-04T01:11:33.107Z,62.92
2019-02-04T01:12:09.372Z,62.47
2019-02-04T01:12:45.523Z,61.96
2019-02-04T01:13:21.662Z,61.74
2019-02-04T01:13:57.780Z,61.34
2019-02-04T01:14:34.078Z,61.01
2019-02-04T01:15:10.547Z,60.95
2019-02-04T01:15:46.902Z,60.71
2019-02-04T01:16:22.984Z,60.44
2019-02-04T01:17:03.567Z,60.29
2019-02-04T01:17:37.158Z,60.02
2019-02-04T01:18:13.414Z,59.81
2019-02-04T01:18:49.805Z,59.50
2019-02-04T01:19:26.115Z,59.29
2019-02-04T01:20:02.265Z,59.14
2019-02-04T01:20:38.506Z,59.18
2019-02-04T01:21:14.549Z,58.92
2019-02-04T01:21:50.758Z,58.53
2019-02-04T01:22:26.927Z,58.35
2019-02-04T01:23:03.135Z,58.32
2019-02-04T01:23:39.369Z,58.24
2019-02-04T01:24:15.510Z,58.30
2019-02-04T01:24:51.732Z,58.27
2019-02-04T01:25:27.841Z,58.29
2019-02-04T01:26:03.886Z,58.26
2019-02-04T01:26:40.219Z,58.24
2019-02-04T01:27:16.463Z,58.10
2019-02-04T01:27:54.334Z,57.89
2019-02-04T01:28:30.504Z,57.73
2019-02-04T01:29:07.093Z,57.60
2019-02-04T01:29:43.429Z,57.41
2019-02-04T01:30:20.236Z,57.22
2019-02-04T01:30:56.536Z,57.08
2019-02-04T01:31:32.830Z,56.86
2019-02-04T01:32:08.955Z,56.71
2019-02-04T01:32:45.024Z,56.68
2019-02-04T01:33:21.291Z,56.66
2019-02-04T01:33:57.412Z,56.50
2019-02-04T01:34:33.504Z,56.36
2019-02-04T01:35:09.885Z,56.18
2019-02-04T01:35:46.060Z,56.05
2019-02-04T01:36:22.271Z,56.29
2019-02-04T01:36:58.759Z,56.50
2019-02-04T01:37:35.013Z,56.61
2019-02-04T01:38:11.600Z,56.92
2019-02-04T01:38:47.934Z,57.01
2019-02-04T01:39:24.012Z,57.06
2019-02-04T01:40:00.220Z,57.04
2019-02-04T01:40:36.456Z,56.76
2019-02-04T01:41:13.294Z,56.59
2019-02-04T01:41:49.514Z,56.28
2019-02-04T01:42:25.701Z,55.94
2019-02-04T01:43:02.009Z,55.62
2019-02-04T01:43:38.112Z,55.49
2019-02-04T01:44:14.159Z,55.50
2019-02-04T01:44:50.308Z,55.32
2019-02-04T01:45:26.921Z,55.07
2019-02-04T01:46:03.038Z,54.65
2019-02-04T01:46:39.177Z,54.39
2019-02-04T01:47:15.505Z,53.99
2019-02-04T01:47:51.681Z,53.87
2019-02-04T01:48:28.163Z,53.74
2019-02-04T01:49:04.378Z,53.72
2019-02-04T01:49:40.475Z,53.70
2019-02-04T01:50:18.537Z,53.89
2019-02-04T01:50:54.753Z,53.72
2019-02-04T01:51:30.879Z,53.67
2019-02-04T01:52:07.092Z,53.73
2019-02-04T01:52:43.270Z,53.73
2019-02-04T01:53:19.616Z,53.60
2019-02-04T01:53:55.999Z,53.25
2019-02-04T01:54:32.081Z,52.90
2019-02-04T01:55:09.347Z,52.88
2019-02-04T01:55:45.458Z,52.86
2019-02-04T01:56:21.612Z,52.57
2019-02-04T01:56:57.821Z,52.39
2019-02-04T01:57:33.954Z,52.42
2019-02-04T01:58:10.255Z,52.51
2019-02-04T01:58:46.676Z,52.56
2019-02-04T01:59:22.825Z,52.70
2019-02-04T01:59:59.086Z,52.73
2019-02-04T02:00:36.936Z,52.13
2019-02-04T02:01:13.198Z,51.72
2019-02-04T02:01:49.353Z,51.73
2019-02-04T02:02:25.508Z,51.44
2019-02-04T02:03:01.665Z,51.33
2019-02-04T02:03:37.798Z,51.32
2019-02-04T02:04:13.909Z,51.07
2019-02-04T02:04:50.174Z,50.85
2019-02-04T02:05:26.291Z,50.88
2019-02-04T02:06:02.386Z,50.94
2019-02-04T02:06:38.504Z,50.93
2019-02-04T02:07:14.867Z,51.04
2019-02-04T02:07:50.869Z,51.18
2019-02-04T02:08:26.956Z,51.28
2019-02-04T02:09:05.216Z,51.25
2019-02-04T02:09:41.333Z,51.11
2019-02-04T02:10:18.960Z,51.12
2019-02-04T02:10:55.087Z,50.74
2019-02-04T02:11:31.302Z,50.20
2019-02-04T02:12:07.568Z,50.13
2019-02-04T02:12:43.783Z,50.17
2019-02-04T02:13:20.027Z,50.12
2019-02-04T02:13:56.371Z,49.84
2019-02-04T02:14:32.680Z,49.51
2019-02-04T02:15:08.798Z,49.29
2019-02-04T02:15:45.234Z,49.03
2019-02-04T02:16:21.479Z,48.97
2019-02-04T02:16:57.694Z,49.15
2019-02-04T02:17:33.921Z,49.13
2019-02-04T02:18:10.355Z,48.91
2019-02-04T02:18:46.482Z,48.46
2019-02-04T02:19:22.790Z,48.34
2019-02-04T02:19:58.841Z,48.35
2019-02-04T02:20:35.377Z,48.37
2019-02-04T02:21:11.434Z,48.44
2019-02-04T02:21:47.599Z,48.50
2019-02-04T02:22:23.943Z,48.57
2019-02-04T02:23:00.177Z,49.10
2019-02-04T02:23:36.279Z,48.98
2019-02-04T02:24:12.516Z,48.25
2019-02-04T02:24:48.736Z,48.46
2019-02-04T02:25:24.976Z,48.42
2019-02-04T02:26:01.227Z,48.01
2019-02-04T02:26:37.585Z,47.86
2019-02-04T02:27:13.839Z,47.87
2019-02-04T02:27:49.912Z,47.90
2019-02-04T02:28:26.073Z,47.84
2019-02-04T02:29:02.181Z,47.82
2019-02-04T02:29:38.788Z,48.22
2019-02-04T02:30:18.947Z,48.65
2019-02-04T02:30:55.271Z,48.58
2019-02-04T02:31:31.605Z,48.61
2019-02-04T02:32:07.911Z,48.43
2019-02-04T02:32:44.279Z,48.34
2019-02-04T02:33:20.323Z,48.10
2019-02-04T02:33:56.470Z,47.81
2019-02-04T02:34:32.758Z,47.90
2019-02-04T02:35:09.548Z,48.06
2019-02-04T02:35:45.744Z,48.16
2019-02-04T02:36:21.854Z,48.15
2019-02-04T02:36:58.041Z,48.15
2019-02-04T02:37:34.201Z,48.11
2019-02-04T02:38:10.428Z,48.09
2019-02-04T02:38:46.697Z,47.88
2019-02-04T02:39:22.771Z,47.06
2019-02-04T02:39:59.163Z,47.07
2019-02-04T02:40:36.216Z,46.91
2019-02-04T02:41:12.372Z,46.86
2019-02-04T02:41:48.484Z,47.00
2019-02-04T02:42:24.695Z,46.89
2019-02-04T02:43:00.912Z,46.82
2019-02-04T02:43:37.083Z,46.99
2019-02-04T02:44:13.298Z,47.15
2019-02-04T02:44:49.418Z,47.11
2019-02-04T02:45:25.493Z,46.96
2019-02-04T02:46:01.745Z,46.61
2019-02-04T02:46:37.860Z,46.51
2019-02-04T02:47:14.099Z,46.16
2019-02-04T02:47:50.307Z,46.19
2019-02-04T02:48:26.508Z,46.37
2019-02-04T02:49:02.794Z,46.74
2019-02-04T02:49:39.001Z,46.84
2019-02-04T02:50:15.380Z,46.77
2019-02-04T02:50:51.734Z,46.64
2019-02-04T02:51:28.255Z,46.55
2019-02-04T02:52:04.459Z,46.39
2019-02-04T02:52:40.594Z,45.68
2019-02-04T02:53:16.654Z,45.32
2019-02-04T02:53:52.839Z,45.15
2019-02-04T02:54:28.985Z,45.08
2019-02-04T02:55:05.294Z,44.96
2019-02-04T02:55:41.462Z,44.81
2019-02-04T02:56:17.696Z,44.70
2019-02-04T02:56:53.839Z,44.71
2019-02-04T02:57:29.972Z,44.82
2019-02-04T02:58:06.611Z,44.94
2019-02-04T02:58:42.897Z,45.15
2019-02-04T02:59:19.022Z,45.43
2019-02-04T02:59:55.109Z,45.25
2019-02-04T03:00:31.769Z,45.23
2019-02-04T03:01:07.860Z,45.32
2019-02-04T03:01:44.113Z,45.74
2019-02-04T03:02:20.263Z,45.64
2019-02-04T03:02:56.684Z,45.39
2019-02-04T03:03:32.795Z,45.24
2019-02-04T03:04:09.485Z,45.25
2019-02-04T03:04:45.744Z,45.38
2019-02-04T03:05:22.040Z,45.27
2019-02-04T03:05:58.423Z,44.99
2019-02-04T03:06:34.614Z,44.88
2019-02-04T03:07:10.778Z,44.93
2019-02-04T03:07:47.267Z,45.22
2019-02-04T03:08:23.530Z,45.51
2019-02-04T03:08:59.748Z,45.69
2019-02-04T03:09:35.768Z,45.87
2019-02-04T03:10:13.740Z,45.75
2019-02-04T03:10:49.873Z,45.69
2019-02-04T03:11:26.044Z,45.61
2019-02-04T03:12:02.465Z,45.63
2019-02-04T03:12:38.597Z,45.56
2019-02-04T03:13:14.987Z,45.45
2019-02-04T03:13:51.026Z,45.48
2019-02-04T03:14:27.289Z,45.66
2019-02-04T03:15:03.411Z,45.69
2019-02-04T03:15:39.583Z,45.98
2019-02-04T03:16:15.783Z,47.04
2019-02-04T03:16:52.109Z,47.40
2019-02-04T03:17:28.493Z,46.93
2019-02-04T03:18:04.654Z,46.47
2019-02-04T03:18:40.935Z,46.65
2019-02-04T03:19:17.157Z,46.58
2019-02-04T03:19:53.340Z,46.38
2019-02-04T03:20:29.481Z,46.47
2019-02-04T03:21:05.588Z,46.65
2019-02-04T03:21:41.863Z,46.76
2019-02-04T03:22:18.040Z,46.68
2019-02-04T03:22:54.335Z,46.75
2019-02-04T03:23:30.896Z,47.01
2019-02-04T03:24:06.927Z,47.00
2019-02-04T03:24:43.058Z,46.87
2019-02-04T03:25:19.374Z,46.52
2019-02-04T03:25:55.635Z,46.25
2019-02-04T03:26:31.834Z,46.43
2019-02-04T03:27:08.002Z,46.36
2019-02-04T03:27:44.338Z,46.51
2019-02-04T03:28:20.431Z,46.72
2019-02-04T03:28:56.566Z,47.11
2019-02-04T03:29:32.811Z,47.39
2019-02-04T03:30:12.736Z,47.07
2019-02-04T03:30:48.947Z,46.79
2019-02-04T03:31:25.034Z,46.57
2019-02-04T03:32:01.253Z,46.64
2019-02-04T03:32:37.352Z,46.79
2019-02-04T03:33:13.542Z,46.90
2019-02-04T03:33:50.176Z,46.92
2019-02-04T03:34:26.519Z,46.81
2019-02-04T03:35:02.782Z,46.78
2019-02-04T03:35:38.953Z,46.71
2019-02-04T03:36:15.172Z,46.70
2019-02-04T03:36:51.268Z,46.74
2019-02-04T03:37:27.400Z,46.78
2019-02-04T03:38:03.628Z,46.71
2019-02-04T03:38:39.801Z,46.59
2019-02-04T03:39:16.033Z,46.41
2019-02-04T03:39:52.399Z,46.38
2019-02-04T03:40:30.235Z,46.45
2019-02-04T03:41:06.331Z,46.67
2019-02-04T03:41:42.524Z,46.80
2019-02-04T03:42:18.724Z,46.49
2019-02-04T03:42:54.944Z,46.49
2019-02-04T03:43:31.233Z,46.64
2019-02-04T03:44:07.594Z,46.70
2019-02-04T03:44:43.656Z,46.81
2019-02-04T03:45:20.054Z,46.70
2019-02-04T03:45:56.071Z,46.63
2019-02-04T03:46:32.179Z,46.79
2019-02-04T03:47:08.790Z,46.79
2019-02-04T03:47:45.104Z,46.90
2019-02-04T03:48:21.225Z,47.32
2019-02-04T03:48:57.507Z,47.48
2019-02-04T03:49:33.546Z,47.52
2019-02-04T03:50:10.810Z,47.42
2019-02-04T03:50:47.081Z,47.25
2019-02-04T03:51:23.447Z,47.15
2019-02-04T03:51:59.576Z,47.05
2019-02-04T03:52:35.743Z,46.79
2019-02-04T03:53:11.997Z,46.72
2019-02-04T03:53:48.232Z,46.72
2019-02-04T03:54:24.876Z,46.74
2019-02-04T03:55:01.060Z,46.54
2019-02-04T03:55:37.156Z,46.87
2019-02-04T03:56:13.314Z,47.05
2019-02-04T03:56:49.400Z,47.11
2019-02-04T03:57:25.443Z,47.37
2019-02-04T03:58:01.581Z,47.22
2019-02-04T03:58:37.628Z,47.14
2019-02-04T03:59:14.197Z,47.22
2019-02-04T03:59:50.414Z,47.61
2019-02-04T04:00:31.437Z,47.61
2019-02-04T04:01:07.588Z,47.47
2019-02-04T04:01:43.892Z,47.49
2019-02-04T04:02:20.026Z,47.51
2019-02-04T04:02:56.177Z,47.56
2019-02-04T04:03:32.808Z,47.62
2019-02-04T04:04:08.918Z,47.82
2019-02-04T04:04:45.458Z,47.69
2019-02-04T04:05:21.641Z,47.73
2019-02-04T04:05:57.816Z,47.88
2019-02-04T04:06:34.036Z,47.79
2019-02-04T04:07:10.345Z,47.94
2019-02-04T04:07:46.517Z,47.80
2019-02-04T04:08:22.678Z,47.80
2019-02-04T04:08:59.052Z,47.83
2019-02-04T04:09:35.123Z,47.94
2019-02-04T04:10:11.862Z,48.06
2019-02-04T04:10:48.181Z,48.08
2019-02-04T04:11:24.447Z,47.96
2019-02-04T04:12:00.617Z,47.82
2019-02-04T04:12:36.918Z,47.77
2019-02-04T04:13:13.154Z,47.72
2019-02-04T04:13:49.801Z,47.69
2019-02-04T04:14:26.021Z,47.35
2019-02-04T04:15:02.506Z,46.92
2019-02-04T04:15:38.540Z,46.85
2019-02-04T04:16:14.707Z,46.98
2019-02-04T04:16:50.798Z,47.18
2019-02-04T04:17:27.020Z,47.06
2019-02-04T04:18:03.217Z,47.03
2019-02-04T04:18:39.331Z,47.13
2019-02-04T04:19:15.473Z,47.28
2019-02-04T04:19:51.803Z,47.36
2019-02-04T04:20:28.020Z,47.37
2019-02-04T04:21:04.228Z,47.58
2019-02-04T04:21:40.337Z,47.68
2019-02-04T04:22:16.542Z,47.64
2019-02-04T04:22:52.731Z,47.39
2019-02-04T04:23:28.928Z,47.39
2019-02-04T04:24:05.356Z,47.15
2019-02-04T04:24:41.663Z,47.06
2019-02-04T04:25:18.476Z,47.06
2019-02-04T04:25:54.714Z,47.25
2019-02-04T04:26:31.295Z,47.43
2019-02-04T04:27:07.556Z,47.50
2019-02-04T04:27:43.778Z,47.66
2019-02-04T04:28:20.178Z,47.80
2019-02-04T04:28:56.524Z,47.75
2019-02-04T04:29:32.720Z,47.71
2019-02-04T04:30:11.729Z,47.77
2019-02-04T04:30:47.947Z,47.78
2019-02-04T04:31:24.044Z,47.64
2019-02-04T04:32:00.180Z,47.44
2019-02-04T04:32:36.196Z,47.22
2019-02-04T04:33:12.457Z,47.00
2019-02-04T04:33:48.654Z,46.89
2019-02-04T04:34:24.925Z,46.94
2019-02-04T04:35:01.144Z,46.92
2019-02-04T04:35:37.667Z,46.81
2019-02-04T04:36:13.816Z,46.89
2019-02-04T04:36:50.241Z,46.61
2019-02-04T04:37:26.362Z,46.55
2019-02-04T04:38:02.549Z,46.60
2019-02-04T04:38:38.880Z,46.88
2019-02-04T04:39:15.028Z,47.15
2019-02-04T04:39:51.111Z,46.94
2019-02-04T04:40:27.081Z,46.85
2019-02-04T04:41:03.392Z,46.80
2019-02-04T04:41:39.590Z,46.70
2019-02-04T04:42:15.849Z,46.87
2019-02-04T04:42:52.285Z,46.89
2019-02-04T04:43:28.417Z,47.04
2019-02-04T04:44:04.872Z,47.13
2019-02-04T04:44:41.065Z,46.95
2019-02-04T04:45:19.459Z,46.88
2019-02-04T04:45:56.046Z,46.64
2019-02-04T04:46:32.290Z,46.51
2019-02-04T04:47:08.478Z,46.61
2019-02-04T04:47:44.699Z,46.63
2019-02-04T04:48:26.750Z,46.61
2019-02-04T04:48:58.870Z,46.75
2019-02-04T04:49:35.176Z,46.78
2019-02-04T04:50:11.543Z,46.79
2019-02-04T04:50:47.727Z,46.24
2019-02-04T04:51:23.972Z,46.18
2019-02-04T04:52:00.328Z,46.53
2019-02-04T04:52:36.503Z,46.67
2019-02-04T04:53:12.840Z,46.71
2019-02-04T04:53:49.028Z,46.82
2019-02-04T04:54:25.077Z,46.91
2019-02-04T04:55:01.457Z,46.57
2019-02-04T04:55:37.768Z,46.20
2019-02-04T04:56:14.394Z,46.08
2019-02-04T04:56:50.470Z,46.03
2019-02-04T04:57:26.863Z,46.27
2019-02-04T04:58:03.107Z,46.21
2019-02-04T04:58:40.764Z,46.41
2019-02-04T04:59:16.886Z,46.42
2019-02-04T04:59:52.974Z,46.42
2019-02-04T05:00:31.206Z,46.09
2019-02-04T05:01:07.297Z,45.96
2019-02-04T05:01:43.443Z,45.96
2019-02-04T05:02:19.759Z,46.01
2019-02-04T05:02:56.039Z,46.09
2019-02-04T05:03:32.189Z,45.85
2019-02-04T05:04:08.445Z,45.80
2019-02-04T05:04:44.799Z,45.84
2019-02-04T05:05:20.907Z,45.92
2019-02-04T05:05:57.239Z,46.10
2019-02-04T05:06:33.757Z,46.07
2019-02-04T05:07:10.032Z,46.17
2019-02-04T05:07:46.500Z,46.05
2019-02-04T05:08:22.611Z,45.78
2019-02-04T05:08:58.919Z,45.68
2019-02-04T05:09:35.294Z,45.75
2019-02-04T05:10:13.277Z,45.77
2019-02-04T05:10:49.441Z,45.86
2019-02-04T05:11:25.723Z,45.89
2019-02-04T05:12:01.838Z,45.40
2019-02-04T05:12:38.107Z,45.26
2019-02-04T05:13:14.281Z,45.17
2019-02-04T05:13:50.392Z,45.15
2019-02-04T05:14:26.518Z,45.04
2019-02-04T05:15:02.633Z,44.90
2019-02-04T05:15:38.796Z,45.00
2019-02-04T05:16:15.079Z,45.03
2019-02-04T05:16:51.496Z,45.01
2019-02-04T05:17:27.628Z,45.25
2019-02-04T05:18:04.057Z,45.56
2019-02-04T05:18:40.433Z,45.49
2019-02-04T05:19:16.588Z,45.04
2019-02-04T05:19:52.670Z,45.26
2019-02-04T05:20:28.946Z,45.36
2019-02-04T05:21:05.200Z,44.99
2019-02-04T05:21:41.308Z,44.51
2019-02-04T05:22:17.447Z,44.52
2019-02-04T05:22:53.658Z,44.48
2019-02-04T05:23:29.924Z,44.54
2019-02-04T05:24:06.162Z,44.53
2019-02-04T05:24:42.807Z,44.61
2019-02-04T05:25:19.219Z,44.67
2019-02-04T05:25:55.320Z,44.81
2019-02-04T05:26:34.355Z,44.73
2019-02-04T05:27:10.637Z,44.76
2019-02-04T05:27:46.951Z,44.94
2019-02-04T05:28:23.248Z,44.31
2019-02-04T05:28:59.332Z,43.87
2019-02-04T05:29:35.533Z,44.05
2019-02-04T05:30:13.902Z,44.27
2019-02-04T05:30:50.297Z,44.31
2019-02-04T05:31:26.611Z,44.50
2019-02-04T05:32:02.814Z,44.73
2019-02-04T05:32:38.995Z,44.65
2019-02-04T05:33:15.256Z,44.52
2019-02-04T05:33:51.465Z,44.38
2019-02-04T05:34:27.803Z,44.25
2019-02-04T05:35:03.905Z,44.25
2019-02-04T05:35:40.195Z,44.24
2019-02-04T05:36:16.357Z,44.32
2019-02-04T05:36:52.499Z,44.40
2019-02-04T05:37:29.076Z,44.45
2019-02-04T05:38:05.364Z,44.40
2019-02-04T05:38:41.547Z,44.47
2019-02-04T05:39:17.836Z,44.74
2019-02-04T05:39:54.108Z,44.89
2019-02-04T05:40:30.431Z,44.86
2019-02-04T05:41:06.655Z,45.08
2019-02-04T05:41:43.121Z,45.08
2019-02-04T05:42:19.392Z,44.47
2019-02-04T05:42:55.527Z,44.21
2019-02-04T05:43:31.701Z,43.94
2019-02-04T05:44:07.855Z,43.86
2019-02-04T05:44:43.958Z,43.60
2019-02-04T05:45:20.858Z,43.40
2019-02-04T05:45:57.199Z,43.14
2019-02-04T05:46:33.385Z,42.90
2019-02-04T05:47:09.666Z,42.78
2019-02-04T05:47:46.059Z,43.00
2019-02-04T05:48:22.427Z,43.06
2019-02-04T05:48:58.772Z,43.43
2019-02-04T05:49:34.893Z,43.38
2019-02-04T05:50:13.423Z,43.07
2019-02-04T05:50:49.542Z,42.83
2019-02-04T05:51:25.700Z,42.82
2019-02-04T05:52:01.939Z,42.83
2019-02-04T05:52:38.060Z,42.79
2019-02-04T05:53:14.321Z,42.74
2019-02-04T05:53:50.413Z,42.41
2019-02-04T05:54:26.760Z,42.40
2019-02-04T05:55:03.056Z,42.38
2019-02-04T05:55:39.163Z,42.56
2019-02-04T05:56:15.354Z,42.66
2019-02-04T05:56:51.452Z,42.83
2019-02-04T05:57:27.681Z,43.06
2019-02-04T05:58:04.180Z,43.14
2019-02-04T05:58:40.471Z,43.22
2019-02-04T05:59:16.823Z,43.41
2019-02-04T05:59:52.972Z,43.62
2019-02-04T06:00:54.616Z,43.72
2019-02-04T06:01:30.887Z,43.76
2019-02-04T06:02:09.428Z,43.94
2019-02-04T06:02:45.533Z,44.10
2019-02-04T06:03:21.801Z,44.22
2019-02-04T06:03:57.909Z,44.23
2019-02-04T06:04:34.107Z,44.42
2019-02-04T06:05:11.767Z,44.46
2019-02-04T06:05:47.891Z,44.42
2019-02-04T06:06:24.155Z,44.46
2019-02-04T06:07:00.429Z,44.55
2019-02-04T06:07:36.631Z,44.57
2019-02-04T06:08:12.976Z,44.64
2019-02-04T06:08:49.017Z,44.76
2019-02-04T06:09:25.231Z,44.94
2019-02-04T06:10:01.297Z,45.12
2019-02-04T06:10:37.519Z,45.53
2019-02-04T06:11:13.657Z,45.90
2019-02-04T06:11:50.113Z,46.16
2019-02-04T06:12:26.263Z,46.52
2019-02-04T06:13:02.678Z,46.72
2019-02-04T06:13:38.942Z,46.89
2019-02-04T06:14:15.207Z,47.13
2019-02-04T06:14:51.551Z,47.41
2019-02-04T06:15:27.784Z,47.90
2019-02-04T06:16:04.020Z,48.00
2019-02-04T06:16:40.127Z,48.04
2019-02-04T06:17:18.957Z,48.09
2019-02-04T06:17:55.325Z,48.29
2019-02-04T06:18:31.534Z,48.25
2019-02-04T06:19:07.656Z,48.44
2019-02-04T06:19:43.866Z,48.56
2019-02-04T06:20:22.048Z,48.66
2019-02-04T06:20:58.606Z,48.68
2019-02-04T06:21:34.840Z,48.60
2019-02-04T06:22:11.143Z,48.66
2019-02-04T06:22:47.343Z,48.74
2019-02-04T06:23:23.560Z,48.65
2019-02-04T06:23:59.731Z,48.53
2019-02-04T06:24:35.834Z,48.43
2019-02-04T06:25:12.153Z,48.35
2019-02-04T06:25:48.245Z,48.28
2019-02-04T06:26:24.492Z,48.36
2019-02-04T06:27:00.544Z,48.44
2019-02-04T06:27:36.827Z,48.50
2019-02-04T06:28:12.965Z,48.58
2019-02-04T06:28:49.248Z,48.64
2019-02-04T06:29:25.367Z,48.72
2019-02-04T06:30:01.538Z,48.91
2019-02-04T06:30:37.889Z,48.86
2019-02-04T06:31:13.978Z,48.92
2019-02-04T06:31:50.028Z,49.01
2019-02-04T06:32:26.666Z,49.15
2019-02-04T06:33:02.865Z,49.31
2019-02-04T06:33:39.354Z,49.27
2019-02-04T06:34:15.506Z,49.27
2019-02-04T06:34:51.729Z,49.38
2019-02-04T06:35:27.915Z,49.34
2019-02-04T06:36:04.113Z,49.25
2019-02-04T06:36:40.383Z,49.04
2019-02-04T06:37:16.498Z,49.06
2019-02-04T06:37:52.575Z,48.88
2019-02-04T06:38:28.841Z,48.56
2019-02-04T06:39:06.419Z,48.43
2019-02-04T06:39:42.535Z,48.31
2019-02-04T06:40:18.817Z,48.44
2019-02-04T06:40:54.880Z,48.48
2019-02-04T06:41:30.983Z,48.52
2019-02-04T06:42:07.216Z,48.67
2019-02-04T06:42:43.749Z,48.66
2019-02-04T06:43:19.827Z,48.60
2019-02-04T06:43:56.408Z,48.49
2019-02-04T06:44:32.569Z,48.45
2019-02-04T06:45:10.335Z,48.43
2019-02-04T06:45:46.641Z,48.50
2019-02-04T06:46:22.905Z,48.60
2019-02-04T06:46:59.034Z,48.27
2019-02-04T06:47:35.153Z,47.40
2019-02-04T06:48:11.411Z,46.87
2019-02-04T06:48:47.496Z,46.55
2019-02-04T06:49:23.683Z,46.25
2019-02-04T06:49:59.749Z,45.86
2019-02-04T06:50:35.885Z,45.36
2019-02-04T06:51:12.090Z,45.29
2019-02-04T06:51:48.241Z,45.51
2019-02-04T06:52:24.575Z,45.79
2019-02-04T06:53:00.699Z,45.72
2019-02-04T06:53:36.830Z,45.54
2019-02-04T06:54:13.232Z,45.53
2019-02-04T06:54:49.413Z,45.73
2019-02-04T06:55:28.604Z,45.80
2019-02-04T06:56:04.742Z,45.95
2019-02-04T06:56:41.008Z,46.15
2019-02-04T06:57:17.221Z,46.41
2019-02-04T06:57:53.390Z,46.41
2019-02-04T06:58:29.400Z,46.40
2019-02-04T06:59:05.934Z,46.37
2019-02-04T06:59:42.245Z,46.10
2019-02-04T07:00:18.885Z,45.84
2019-02-04T07:00:55.031Z,45.58
2019-02-04T07:01:31.169Z,45.73
2019-02-04T07:02:07.616Z,45.79
2019-02-04T07:02:43.903Z,45.83
2019-02-04T07:03:20.045Z,45.84
2019-02-04T07:03:56.341Z,45.91
2019-02-04T07:04:32.932Z,45.76
2019-02-04T07:05:09.227Z,45.45
2019-02-04T07:05:45.554Z,45.28
2019-02-04T07:06:21.656Z,45.22
2019-02-04T07:06:57.941Z,45.37
2019-02-04T07:07:34.035Z,45.35
2019-02-04T07:08:10.271Z,45.34
2019-02-04T07:08:46.594Z,45.26
2019-02-04T07:09:22.679Z,45.15
2019-02-04T07:09:58.909Z,44.49
2019-02-04T07:10:35.229Z,44.38
2019-02-04T07:11:11.359Z,44.37
2019-02-04T07:11:47.546Z,44.35
2019-02-04T07:12:23.854Z,44.45
2019-02-04T07:13:00.104Z,44.49
2019-02-04T07:13:36.186Z,44.11
2019-02-04T07:14:12.351Z,44.15
2019-02-04T07:14:48.358Z,44.18
2019-02-04T07:15:24.575Z,44.18
2019-02-04T07:16:00.885Z,44.44
2019-02-04T07:16:37.101Z,44.60
2019-02-04T07:17:13.795Z,44.63
2019-02-04T07:17:50.093Z,44.65
2019-02-04T07:18:26.200Z,44.69
2019-02-04T07:19:02.366Z,44.78
2019-02-04T07:19:38.536Z,44.88
2019-02-04T07:20:20.346Z,44.75
2019-02-04T07:20:56.544Z,44.60
2019-02-04T07:21:32.701Z,44.78
2019-02-04T07:22:09.406Z,44.99
2019-02-04T07:22:45.442Z,45.70
2019-02-04T07:23:21.674Z,46.60
2019-02-04T07:23:57.788Z,47.27
2019-02-04T07:24:42.506Z,47.63
2019-02-04T07:25:13.218Z,48.04
2019-02-04T07:25:49.284Z,48.08
2019-02-04T07:26:25.970Z,48.51
2019-02-04T07:27:02.103Z,48.59
2019-02-04T07:27:38.362Z,48.57
2019-02-04T07:28:14.559Z,48.62
2019-02-04T07:28:51.453Z,48.65
2019-02-04T07:29:27.638Z,48.67
2019-02-04T07:30:03.667Z,49.08
2019-02-04T07:30:39.880Z,49.23
2019-02-04T07:31:16.274Z,49.29
2019-02-04T07:31:52.423Z,49.42
2019-02-04T07:32:28.591Z,49.47
2019-02-04T07:33:04.932Z,49.37
2019-02-04T07:33:41.209Z,49.42
2019-02-04T07:34:17.242Z,49.40
2019-02-04T07:34:53.286Z,49.22
2019-02-04T07:35:29.548Z,49.14
2019-02-04T07:36:05.674Z,49.17
2019-02-04T07:36:41.801Z,49.36
2019-02-04T07:37:18.100Z,49.29
2019-02-04T07:37:54.516Z,49.15
2019-02-04T07:38:30.748Z,49.13
2019-02-04T07:39:08.995Z,49.27
2019-02-04T07:39:45.024Z,49.25
2019-02-04T07:40:23.400Z,49.38
2019-02-04T07:40:59.687Z,49.57
2019-02-04T07:41:35.828Z,49.62
2019-02-04T07:42:12.069Z,49.40
2019-02-04T07:42:48.524Z,49.31
2019-02-04T07:43:24.775Z,49.09
2019-02-04T07:44:00.982Z,48.87
2019-02-04T07:44:37.134Z,48.94
2019-02-04T07:45:13.457Z,49.17
2019-02-04T07:45:49.579Z,49.31
2019-02-04T07:46:25.679Z,49.39
2019-02-04T07:47:01.882Z,49.36
2019-02-04T07:47:38.159Z,48.85
2019-02-04T07:48:14.719Z,48.77
2019-02-04T07:48:50.768Z,48.83